sensor_id;sensor_type;location;lat;lon;timestamp;temperature;humidity
31038;DHT22;17702;47.590;7.666;2024-03-22T00:00:41;13.70;99.90
31038;DHT22;17702;47.590;7.666;2024-03-22T00:03:07;13.70;99.90
31038;DHT22;17702;47.590;7.666;2024-03-22T00:05:32;13.70;99.90
31038;DHT22;17702;47.590;7.666;2024-03-22T00:07:58;13.70;99.90
31038;DHT22;17702;47.590;7.666;2024-03-22T00:10:23;13.60;99.90
31038;DHT22;17702;47.590;7.666;2024-03-22T00:12:49;13.60;99.90
31038;DHT22;17702;47.590;7.666;2024-03-22T00:15:15;13.60;99.90
31038;DHT22;17702;47.590;7.666;2024-03-22T00:17:43;13.60;99.90
31038;DHT22;17702;47.590;7.666;2024-03-22T00:20:09;13.50;99.90
31038;DHT22;17702;47.590;7.666;2024-03-22T00:22:34;13.50;99.90
31038;DHT22;17702;47.590;7.666;2024-03-22T00:25:00;13.40;99.90
31038;DHT22;17702;47.590;7.666;2024-03-22T00:27:25;13.40;99.90
31038;DHT22;17702;47.590;7.666;2024-03-22T00:29:51;13.30;99.90
31038;DHT22;17702;47.590;7.666;2024-03-22T00:32:17;13.40;99.90
31038;DHT22;17702;47.590;7.666;2024-03-22T00:34:42;13.30;99.90
31038;DHT22;17702;47.590;7.666;2024-03-22T00:37:08;13.30;99.90
31038;DHT22;17702;47.590;7.666;2024-03-22T00:39:34;13.20;99.90
31038;DHT22;17702;47.590;7.666;2024-03-22T00:41:59;13.20;99.90
31038;DHT22;17702;47.590;7.666;2024-03-22T00:44:25;13.10;99.90
31038;DHT22;17702;47.590;7.666;2024-03-22T00:46:50;13.10;99.90
31038;DHT22;17702;47.590;7.666;2024-03-22T00:49:16;13.00;99.90
31038;DHT22;17702;47.590;7.666;2024-03-22T00:51:41;12.90;99.90
31038;DHT22;17702;47.590;7.666;2024-03-22T00:54:09;12.80;99.90
31038;DHT22;17702;47.590;7.666;2024-03-22T00:56:35;12.80;99.90
31038;DHT22;17702;47.590;7.666;2024-03-22T00:59:00;12.80;99.90
31038;DHT22;17702;47.590;7.666;2024-03-22T01:01:26;12.70;99.90
31038;DHT22;17702;47.590;7.666;2024-03-22T01:03:51;12.80;99.90
31038;DHT22;17702;47.590;7.666;2024-03-22T01:06:17;12.80;99.90
31038;DHT22;17702;47.590;7.666;2024-03-22T01:08:48;12.80;99.90
31038;DHT22;17702;47.590;7.666;2024-03-22T01:11:14;12.70;99.90
31038;DHT22;17702;47.590;7.666;2024-03-22T01:13:40;12.70;99.90
31038;DHT22;17702;47.590;7.666;2024-03-22T01:16:06;12.70;99.90
31038;DHT22;17702;47.590;7.666;2024-03-22T01:18:35;12.70;99.90
31038;DHT22;17702;47.590;7.666;2024-03-22T01:21:01;12.70;99.90
31038;DHT22;17702;47.590;7.666;2024-03-22T01:23:26;12.70;99.90
31038;DHT22;17702;47.590;7.666;2024-03-22T01:25:52;12.70;99.90
31038;DHT22;17702;47.590;7.666;2024-03-22T01:28:17;12.60;99.90
31038;DHT22;17702;47.590;7.666;2024-03-22T01:30:43;12.60;99.90
31038;DHT22;17702;47.590;7.666;2024-03-22T01:33:09;12.60;99.90
31038;DHT22;17702;47.590;7.666;2024-03-22T01:35:34;12.50;99.90
31038;DHT22;17702;47.590;7.666;2024-03-22T01:38:00;12.50;99.90
31038;DHT22;17702;47.590;7.666;2024-03-22T01:40:26;12.50;99.90
31038;DHT22;17702;47.590;7.666;2024-03-22T01:42:58;12.40;99.90
31038;DHT22;17702;47.590;7.666;2024-03-22T01:45:24;12.30;99.90
31038;DHT22;17702;47.590;7.666;2024-03-22T01:47:53;12.30;99.90
31038;DHT22;17702;47.590;7.666;2024-03-22T01:50:22;12.20;99.90
31038;DHT22;17702;47.590;7.666;2024-03-22T01:52:48;12.20;99.90
31038;DHT22;17702;47.590;7.666;2024-03-22T01:55:14;12.00;99.90
31038;DHT22;17702;47.590;7.666;2024-03-22T01:57:40;12.00;99.90
31038;DHT22;17702;47.590;7.666;2024-03-22T02:00:06;11.80;99.90
31038;DHT22;17702;47.590;7.666;2024-03-22T02:02:34;11.70;99.90
31038;DHT22;17702;47.590;7.666;2024-03-22T02:05:11;11.70;99.90
31038;DHT22;17702;47.590;7.666;2024-03-22T02:07:36;11.70;99.90
31038;DHT22;17702;47.590;7.666;2024-03-22T02:10:02;11.70;99.90
31038;DHT22;17702;47.590;7.666;2024-03-22T02:12:28;11.70;99.90
31038;DHT22;17702;47.590;7.666;2024-03-22T02:14:53;11.70;99.90
31038;DHT22;17702;47.590;7.666;2024-03-22T02:17:22;11.70;99.90
31038;DHT22;17702;47.590;7.666;2024-03-22T02:19:48;11.70;99.90
31038;DHT22;17702;47.590;7.666;2024-03-22T02:22:13;11.70;99.90
31038;DHT22;17702;47.590;7.666;2024-03-22T02:24:39;11.60;99.90
31038;DHT22;17702;47.590;7.666;2024-03-22T02:27:05;11.60;99.90
31038;DHT22;17702;47.590;7.666;2024-03-22T02:29:30;11.60;99.90
31038;DHT22;17702;47.590;7.666;2024-03-22T02:31:56;11.60;99.90
31038;DHT22;17702;47.590;7.666;2024-03-22T02:34:23;11.50;99.90
31038;DHT22;17702;47.590;7.666;2024-03-22T02:36:49;11.50;99.90
31038;DHT22;17702;47.590;7.666;2024-03-22T02:39:14;11.50;99.90
31038;DHT22;17702;47.590;7.666;2024-03-22T02:41:40;11.50;99.90
31038;DHT22;17702;47.590;7.666;2024-03-22T02:44:06;11.50;99.90
31038;DHT22;17702;47.590;7.666;2024-03-22T02:46:32;11.50;99.90
31038;DHT22;17702;47.590;7.666;2024-03-22T02:48:57;11.50;99.90
31038;DHT22;17702;47.590;7.666;2024-03-22T02:51:23;11.50;99.90
31038;DHT22;17702;47.590;7.666;2024-03-22T02:53:49;11.50;99.90
31038;DHT22;17702;47.590;7.666;2024-03-22T02:56:15;11.40;99.90
31038;DHT22;17702;47.590;7.666;2024-03-22T02:58:40;11.40;99.90
31038;DHT22;17702;47.590;7.666;2024-03-22T03:01:06;11.40;99.90
31038;DHT22;17702;47.590;7.666;2024-03-22T03:03:32;11.40;99.90
31038;DHT22;17702;47.590;7.666;2024-03-22T03:05:57;11.40;99.90
31038;DHT22;17702;47.590;7.666;2024-03-22T03:08:23;11.40;99.90
31038;DHT22;17702;47.590;7.666;2024-03-22T03:10:48;11.40;99.90
31038;DHT22;17702;47.590;7.666;2024-03-22T03:13:14;11.40;99.90
31038;DHT22;17702;47.590;7.666;2024-03-22T03:15:39;11.50;99.90
31038;DHT22;17702;47.590;7.666;2024-03-22T03:18:05;11.50;99.90
31038;DHT22;17702;47.590;7.666;2024-03-22T03:20:31;11.50;99.90
31038;DHT22;17702;47.590;7.666;2024-03-22T03:22:56;11.60;99.90
31038;DHT22;17702;47.590;7.666;2024-03-22T03:25:25;11.70;99.90
31038;DHT22;17702;47.590;7.666;2024-03-22T03:27:51;11.70;99.90
31038;DHT22;17702;47.590;7.666;2024-03-22T03:30:17;11.70;99.90
31038;DHT22;17702;47.590;7.666;2024-03-22T03:32:43;11.70;99.90
31038;DHT22;17702;47.590;7.666;2024-03-22T03:35:08;11.70;99.90
31038;DHT22;17702;47.590;7.666;2024-03-22T03:37:34;11.70;99.90
31038;DHT22;17702;47.590;7.666;2024-03-22T03:39:59;11.70;99.90
31038;DHT22;17702;47.590;7.666;2024-03-22T03:42:25;11.70;99.90
31038;DHT22;17702;47.590;7.666;2024-03-22T03:44:51;11.80;99.90
31038;DHT22;17702;47.590;7.666;2024-03-22T03:47:17;11.80;99.90
31038;DHT22;17702;47.590;7.666;2024-03-22T03:49:42;11.80;99.90
31038;DHT22;17702;47.590;7.666;2024-03-22T03:52:10;11.90;99.90
31038;DHT22;17702;47.590;7.666;2024-03-22T03:54:35;11.90;99.90
31038;DHT22;17702;47.590;7.666;2024-03-22T03:57:01;11.90;99.90
31038;DHT22;17702;47.590;7.666;2024-03-22T03:59:27;12.00;99.90
31038;DHT22;17702;47.590;7.666;2024-03-22T04:01:52;12.10;99.90
31038;DHT22;17702;47.590;7.666;2024-03-22T04:04:18;12.10;99.90
31038;DHT22;17702;47.590;7.666;2024-03-22T04:06:44;12.20;99.90
31038;DHT22;17702;47.590;7.666;2024-03-22T04:09:10;12.20;99.90
31038;DHT22;17702;47.590;7.666;2024-03-22T04:11:35;12.30;99.90
31038;DHT22;17702;47.590;7.666;2024-03-22T04:14:01;12.30;99.90
31038;DHT22;17702;47.590;7.666;2024-03-22T04:16:26;12.40;99.90
31038;DHT22;17702;47.590;7.666;2024-03-22T04:18:53;12.40;99.90
31038;DHT22;17702;47.590;7.666;2024-03-22T04:21:18;12.50;99.90
31038;DHT22;17702;47.590;7.666;2024-03-22T04:23:44;12.50;99.90
31038;DHT22;17702;47.590;7.666;2024-03-22T04:26:10;12.60;99.90
31038;DHT22;17702;47.590;7.666;2024-03-22T04:28:35;12.70;99.90
31038;DHT22;17702;47.590;7.666;2024-03-22T04:31:03;12.70;99.90
31038;DHT22;17702;47.590;7.666;2024-03-22T04:33:30;12.70;99.90
31038;DHT22;17702;47.590;7.666;2024-03-22T04:35:56;12.70;99.90
31038;DHT22;17702;47.590;7.666;2024-03-22T04:38:22;12.70;99.90
31038;DHT22;17702;47.590;7.666;2024-03-22T04:40:48;12.60;99.90
31038;DHT22;17702;47.590;7.666;2024-03-22T04:43:14;12.70;99.90
31038;DHT22;17702;47.590;7.666;2024-03-22T04:45:45;12.60;99.90
31038;DHT22;17702;47.590;7.666;2024-03-22T04:48:17;12.70;99.90
31038;DHT22;17702;47.590;7.666;2024-03-22T04:50:42;12.70;99.90
31038;DHT22;17702;47.590;7.666;2024-03-22T04:53:08;12.80;99.90
31038;DHT22;17702;47.590;7.666;2024-03-22T04:55:34;12.90;99.90
31038;DHT22;17702;47.590;7.666;2024-03-22T04:57:59;12.80;99.90
31038;DHT22;17702;47.590;7.666;2024-03-22T05:00:26;12.90;99.90
31038;DHT22;17702;47.590;7.666;2024-03-22T05:02:52;12.90;99.90
31038;DHT22;17702;47.590;7.666;2024-03-22T05:05:18;13.00;99.90
31038;DHT22;17702;47.590;7.666;2024-03-22T05:07:43;13.00;99.90
31038;DHT22;17702;47.590;7.666;2024-03-22T05:10:09;13.10;99.90
31038;DHT22;17702;47.590;7.666;2024-03-22T05:12:35;13.10;99.90
31038;DHT22;17702;47.590;7.666;2024-03-22T05:15:02;13.10;99.90
31038;DHT22;17702;47.590;7.666;2024-03-22T05:17:28;13.10;99.90
31038;DHT22;17702;47.590;7.666;2024-03-22T05:19:55;13.10;99.90
31038;DHT22;17702;47.590;7.666;2024-03-22T05:22:20;13.20;99.90
31038;DHT22;17702;47.590;7.666;2024-03-22T05:24:47;13.20;99.90
31038;DHT22;17702;47.590;7.666;2024-03-22T05:27:13;13.30;99.90
31038;DHT22;17702;47.590;7.666;2024-03-22T05:29:38;13.30;99.90
31038;DHT22;17702;47.590;7.666;2024-03-22T05:32:05;13.30;99.90
31038;DHT22;17702;47.590;7.666;2024-03-22T05:34:31;13.30;99.90
31038;DHT22;17702;47.590;7.666;2024-03-22T05:36:56;13.30;99.90
31038;DHT22;17702;47.590;7.666;2024-03-22T05:39:22;13.30;99.90
31038;DHT22;17702;47.590;7.666;2024-03-22T05:41:47;13.20;99.90
31038;DHT22;17702;47.590;7.666;2024-03-22T05:44:13;13.30;99.90
31038;DHT22;17702;47.590;7.666;2024-03-22T05:46:39;13.30;99.90
31038;DHT22;17702;47.590;7.666;2024-03-22T05:49:04;13.40;99.90
31038;DHT22;17702;47.590;7.666;2024-03-22T05:51:30;13.30;99.90
31038;DHT22;17702;47.590;7.666;2024-03-22T05:53:56;13.30;99.90
31038;DHT22;17702;47.590;7.666;2024-03-22T05:56:22;13.30;99.90
31038;DHT22;17702;47.590;7.666;2024-03-22T05:58:48;13.40;99.90
31038;DHT22;17702;47.590;7.666;2024-03-22T06:01:14;13.40;99.90
31038;DHT22;17702;47.590;7.666;2024-03-22T06:03:39;13.40;99.90
31038;DHT22;17702;47.590;7.666;2024-03-22T06:06:05;13.40;99.90
31038;DHT22;17702;47.590;7.666;2024-03-22T06:08:31;13.40;99.90
31038;DHT22;17702;47.590;7.666;2024-03-22T06:11:06;13.40;99.90
31038;DHT22;17702;47.590;7.666;2024-03-22T06:13:32;13.40;99.90
31038;DHT22;17702;47.590;7.666;2024-03-22T06:15:58;13.30;99.90
31038;DHT22;17702;47.590;7.666;2024-03-22T06:18:24;13.30;99.90
31038;DHT22;17702;47.590;7.666;2024-03-22T06:20:49;13.20;99.90
31038;DHT22;17702;47.590;7.666;2024-03-22T06:23:15;13.20;99.90
31038;DHT22;17702;47.590;7.666;2024-03-22T06:25:41;13.20;99.90
31038;DHT22;17702;47.590;7.666;2024-03-22T06:28:06;13.20;99.90
31038;DHT22;17702;47.590;7.666;2024-03-22T06:30:32;13.20;99.90
31038;DHT22;17702;47.590;7.666;2024-03-22T06:32:57;13.30;99.90
31038;DHT22;17702;47.590;7.666;2024-03-22T06:35:23;13.30;99.90
31038;DHT22;17702;47.590;7.666;2024-03-22T06:37:49;13.30;99.90
31038;DHT22;17702;47.590;7.666;2024-03-22T06:40:15;13.40;99.90
31038;DHT22;17702;47.590;7.666;2024-03-22T06:42:40;13.40;99.90
31038;DHT22;17702;47.590;7.666;2024-03-22T06:45:07;13.40;99.90
31038;DHT22;17702;47.590;7.666;2024-03-22T06:47:32;13.50;99.90
31038;DHT22;17702;47.590;7.666;2024-03-22T06:49:58;13.60;99.90
31038;DHT22;17702;47.590;7.666;2024-03-22T06:52:24;13.60;99.90
31038;DHT22;17702;47.590;7.666;2024-03-22T06:54:49;13.70;99.90
31038;DHT22;17702;47.590;7.666;2024-03-22T06:57:15;13.70;99.90
31038;DHT22;17702;47.590;7.666;2024-03-22T06:59:41;13.80;99.90
31038;DHT22;17702;47.590;7.666;2024-03-22T07:02:06;13.80;99.90
31038;DHT22;17702;47.590;7.666;2024-03-22T07:04:34;13.80;99.80
31038;DHT22;17702;47.590;7.666;2024-03-22T07:07:00;13.90;99.70
31038;DHT22;17702;47.590;7.666;2024-03-22T07:09:26;14.00;99.90
31038;DHT22;17702;47.590;7.666;2024-03-22T07:11:53;14.10;99.90
31038;DHT22;17702;47.590;7.666;2024-03-22T07:14:19;14.10;99.50
31038;DHT22;17702;47.590;7.666;2024-03-22T07:16:45;14.20;99.90
31038;DHT22;17702;47.590;7.666;2024-03-22T07:19:11;14.20;99.70
31038;DHT22;17702;47.590;7.666;2024-03-22T07:21:37;14.40;99.70
31038;DHT22;17702;47.590;7.666;2024-03-22T07:24:04;14.50;99.20
31038;DHT22;17702;47.590;7.666;2024-03-22T07:26:29;14.60;99.00
31038;DHT22;17702;47.590;7.666;2024-03-22T07:28:55;14.60;99.10
31038;DHT22;17702;47.590;7.666;2024-03-22T07:31:20;14.70;99.50
31038;DHT22;17702;47.590;7.666;2024-03-22T07:33:46;14.80;98.90
31038;DHT22;17702;47.590;7.666;2024-03-22T07:36:12;14.90;98.50
31038;DHT22;17702;47.590;7.666;2024-03-22T07:38:38;14.90;98.50
31038;DHT22;17702;47.590;7.666;2024-03-22T07:41:06;15.00;97.80
31038;DHT22;17702;47.590;7.666;2024-03-22T07:43:32;15.00;98.50
31038;DHT22;17702;47.590;7.666;2024-03-22T07:45:58;15.00;98.40
31038;DHT22;17702;47.590;7.666;2024-03-22T07:48:23;15.00;98.50
31038;DHT22;17702;47.590;7.666;2024-03-22T07:50:56;15.00;98.30
31038;DHT22;17702;47.590;7.666;2024-03-22T07:53:22;15.00;98.20
31038;DHT22;17702;47.590;7.666;2024-03-22T07:55:48;14.90;98.80
31038;DHT22;17702;47.590;7.666;2024-03-22T07:58:13;14.90;99.90
31038;DHT22;17702;47.590;7.666;2024-03-22T08:00:39;15.00;99.90
31038;DHT22;17702;47.590;7.666;2024-03-22T08:03:04;15.10;99.90
31038;DHT22;17702;47.590;7.666;2024-03-22T08:05:30;15.20;99.30
31038;DHT22;17702;47.590;7.666;2024-03-22T08:07:56;15.40;98.10
31038;DHT22;17702;47.590;7.666;2024-03-22T08:10:21;15.60;98.90
31038;DHT22;17702;47.590;7.666;2024-03-22T08:12:49;15.90;98.00
31038;DHT22;17702;47.590;7.666;2024-03-22T08:15:14;16.10;96.80
31038;DHT22;17702;47.590;7.666;2024-03-22T08:17:40;16.30;96.10
31038;DHT22;17702;47.590;7.666;2024-03-22T08:20:06;16.40;96.00
31038;DHT22;17702;47.590;7.666;2024-03-22T08:22:32;16.60;95.30
31038;DHT22;17702;47.590;7.666;2024-03-22T08:24:58;16.80;94.90
31038;DHT22;17702;47.590;7.666;2024-03-22T08:27:23;17.00;93.70
31038;DHT22;17702;47.590;7.666;2024-03-22T08:29:50;17.00;92.40
31038;DHT22;17702;47.590;7.666;2024-03-22T08:32:15;17.00;93.90
31038;DHT22;17702;47.590;7.666;2024-03-22T08:34:41;17.10;95.20
31038;DHT22;17702;47.590;7.666;2024-03-22T08:37:06;17.30;95.20
31038;DHT22;17702;47.590;7.666;2024-03-22T08:39:32;17.50;93.80
31038;DHT22;17702;47.590;7.666;2024-03-22T08:41:58;17.70;94.40
31038;DHT22;17702;47.590;7.666;2024-03-22T08:44:24;17.90;92.20
31038;DHT22;17702;47.590;7.666;2024-03-22T08:46:49;17.90;93.70
31038;DHT22;17702;47.590;7.666;2024-03-22T08:49:15;18.10;93.80
31038;DHT22;17702;47.590;7.666;2024-03-22T08:51:41;18.10;92.60
31038;DHT22;17702;47.590;7.666;2024-03-22T08:54:07;18.10;92.70
31038;DHT22;17702;47.590;7.666;2024-03-22T08:56:32;18.30;92.50
31038;DHT22;17702;47.590;7.666;2024-03-22T08:58:59;18.30;90.70
31038;DHT22;17702;47.590;7.666;2024-03-22T09:01:24;18.40;90.50
31038;DHT22;17702;47.590;7.666;2024-03-22T09:03:50;18.60;90.20
31038;DHT22;17702;47.590;7.666;2024-03-22T09:06:16;18.70;90.60
31038;DHT22;17702;47.590;7.666;2024-03-22T09:08:42;18.80;87.60
31038;DHT22;17702;47.590;7.666;2024-03-22T09:11:07;18.90;87.80
31038;DHT22;17702;47.590;7.666;2024-03-22T09:13:34;19.00;86.30
31038;DHT22;17702;47.590;7.666;2024-03-22T09:16:01;19.10;84.40
31038;DHT22;17702;47.590;7.666;2024-03-22T09:18:27;19.30;82.20
31038;DHT22;17702;47.590;7.666;2024-03-22T09:20:53;19.30;82.70
31038;DHT22;17702;47.590;7.666;2024-03-22T09:23:19;19.30;79.80
31038;DHT22;17702;47.590;7.666;2024-03-22T09:25:45;19.40;81.00
31038;DHT22;17702;47.590;7.666;2024-03-22T09:28:12;19.50;79.90
31038;DHT22;17702;47.590;7.666;2024-03-22T09:30:40;19.60;76.70
31038;DHT22;17702;47.590;7.666;2024-03-22T09:33:06;19.70;75.30
31038;DHT22;17702;47.590;7.666;2024-03-22T09:35:36;19.70;71.70
31038;DHT22;17702;47.590;7.666;2024-03-22T09:38:01;19.70;73.70
31038;DHT22;17702;47.590;7.666;2024-03-22T09:40:30;19.70;74.60
31038;DHT22;17702;47.590;7.666;2024-03-22T09:43:01;19.90;72.00
31038;DHT22;17702;47.590;7.666;2024-03-22T09:45:31;20.10;71.20
31038;DHT22;17702;47.590;7.666;2024-03-22T09:47:58;20.10;71.50
31038;DHT22;17702;47.590;7.666;2024-03-22T09:50:23;20.30;71.50
31038;DHT22;17702;47.590;7.666;2024-03-22T09:52:52;20.60;68.10
31038;DHT22;17702;47.590;7.666;2024-03-22T09:55:23;20.70;69.70
31038;DHT22;17702;47.590;7.666;2024-03-22T09:57:49;20.90;67.10
31038;DHT22;17702;47.590;7.666;2024-03-22T10:00:19;21.00;65.50
31038;DHT22;17702;47.590;7.666;2024-03-22T10:02:47;21.00;66.00
31038;DHT22;17702;47.590;7.666;2024-03-22T10:05:14;21.00;65.80
31038;DHT22;17702;47.590;7.666;2024-03-22T10:07:40;21.10;64.00
31038;DHT22;17702;47.590;7.666;2024-03-22T10:10:05;21.20;64.50
31038;DHT22;17702;47.590;7.666;2024-03-22T10:12:33;21.30;63.60
31038;DHT22;17702;47.590;7.666;2024-03-22T10:14:58;21.30;62.30
31038;DHT22;17702;47.590;7.666;2024-03-22T10:17:26;21.30;64.00
31038;DHT22;17702;47.590;7.666;2024-03-22T10:19:52;21.30;61.60
31038;DHT22;17702;47.590;7.666;2024-03-22T10:22:18;21.20;62.70
31038;DHT22;17702;47.590;7.666;2024-03-22T10:24:44;21.40;62.50
31038;DHT22;17702;47.590;7.666;2024-03-22T10:27:10;21.40;59.90
31038;DHT22;17702;47.590;7.666;2024-03-22T10:29:36;21.50;60.00
31038;DHT22;17702;47.590;7.666;2024-03-22T10:32:02;21.60;60.10
31038;DHT22;17702;47.590;7.666;2024-03-22T10:34:28;21.70;58.90
31038;DHT22;17702;47.590;7.666;2024-03-22T10:36:55;21.80;58.30
31038;DHT22;17702;47.590;7.666;2024-03-22T10:39:24;21.90;59.60
31038;DHT22;17702;47.590;7.666;2024-03-22T10:41:49;21.90;59.60
31038;DHT22;17702;47.590;7.666;2024-03-22T10:44:16;22.10;57.80
31038;DHT22;17702;47.590;7.666;2024-03-22T10:46:48;22.20;57.20
31038;DHT22;17702;47.590;7.666;2024-03-22T10:49:20;22.30;57.80
31038;DHT22;17702;47.590;7.666;2024-03-22T10:51:52;22.60;57.30
31038;DHT22;17702;47.590;7.666;2024-03-22T10:54:21;22.60;53.20
31038;DHT22;17702;47.590;7.666;2024-03-22T10:56:48;22.60;53.60
31038;DHT22;17702;47.590;7.666;2024-03-22T10:59:22;22.60;55.20
31038;DHT22;17702;47.590;7.666;2024-03-22T11:01:49;22.50;52.60
31038;DHT22;17702;47.590;7.666;2024-03-22T11:04:29;22.40;54.40
31038;DHT22;17702;47.590;7.666;2024-03-22T11:06:57;22.50;55.00
31038;DHT22;17702;47.590;7.666;2024-03-22T11:09:26;22.50;56.10
31038;DHT22;17702;47.590;7.666;2024-03-22T11:11:53;22.60;56.30
31038;DHT22;17702;47.590;7.666;2024-03-22T11:14:19;22.70;55.90
31038;DHT22;17702;47.590;7.666;2024-03-22T11:16:51;22.70;55.10
31038;DHT22;17702;47.590;7.666;2024-03-22T11:19:17;22.70;52.60
31038;DHT22;17702;47.590;7.666;2024-03-22T11:21:42;22.60;51.70
31038;DHT22;17702;47.590;7.666;2024-03-22T11:24:08;22.60;49.80
31038;DHT22;17702;47.590;7.666;2024-03-22T11:26:35;22.60;50.40
31038;DHT22;17702;47.590;7.666;2024-03-22T11:29:01;22.60;50.70
31038;DHT22;17702;47.590;7.666;2024-03-22T11:31:27;22.70;48.50
31038;DHT22;17702;47.590;7.666;2024-03-22T11:33:53;22.80;49.50
31038;DHT22;17702;47.590;7.666;2024-03-22T11:36:19;22.90;49.50
31038;DHT22;17702;47.590;7.666;2024-03-22T11:38:45;22.90;47.90
31038;DHT22;17702;47.590;7.666;2024-03-22T11:41:11;22.80;48.50
31038;DHT22;17702;47.590;7.666;2024-03-22T11:43:37;22.80;47.40
31038;DHT22;17702;47.590;7.666;2024-03-22T11:46:03;22.70;47.90
31038;DHT22;17702;47.590;7.666;2024-03-22T11:48:29;22.60;46.50
31038;DHT22;17702;47.590;7.666;2024-03-22T11:50:55;22.60;48.90
31038;DHT22;17702;47.590;7.666;2024-03-22T11:53:21;22.70;47.90
31038;DHT22;17702;47.590;7.666;2024-03-22T11:55:49;22.70;47.10
31038;DHT22;17702;47.590;7.666;2024-03-22T11:58:15;22.70;48.10
31038;DHT22;17702;47.590;7.666;2024-03-22T12:00:42;22.70;48.00
31038;DHT22;17702;47.590;7.666;2024-03-22T12:03:09;22.70;50.10
31038;DHT22;17702;47.590;7.666;2024-03-22T12:05:34;22.70;47.10
31038;DHT22;17702;47.590;7.666;2024-03-22T12:08:00;22.60;47.10
31038;DHT22;17702;47.590;7.666;2024-03-22T12:10:26;22.60;45.10
31038;DHT22;17702;47.590;7.666;2024-03-22T12:12:51;22.60;47.50
31038;DHT22;17702;47.590;7.666;2024-03-22T12:15:19;22.70;47.50
31038;DHT22;17702;47.590;7.666;2024-03-22T12:17:44;22.70;47.90
31038;DHT22;17702;47.590;7.666;2024-03-22T12:20:10;22.60;46.10
31038;DHT22;17702;47.590;7.666;2024-03-22T12:22:36;22.60;47.10
31038;DHT22;17702;47.590;7.666;2024-03-22T12:25:01;22.60;46.20
31038;DHT22;17702;47.590;7.666;2024-03-22T12:27:29;22.60;46.50
31038;DHT22;17702;47.590;7.666;2024-03-22T12:29:55;22.70;44.60
31038;DHT22;17702;47.590;7.666;2024-03-22T12:32:20;22.70;46.00
31038;DHT22;17702;47.590;7.666;2024-03-22T12:34:46;22.70;46.80
31038;DHT22;17702;47.590;7.666;2024-03-22T12:37:12;22.60;47.30
31038;DHT22;17702;47.590;7.666;2024-03-22T12:39:39;22.60;44.50
31038;DHT22;17702;47.590;7.666;2024-03-22T12:42:05;22.70;45.90
31038;DHT22;17702;47.590;7.666;2024-03-22T12:44:31;22.60;45.90
31038;DHT22;17702;47.590;7.666;2024-03-22T12:46:57;22.70;46.30
31038;DHT22;17702;47.590;7.666;2024-03-22T12:49:22;22.70;45.70
31038;DHT22;17702;47.590;7.666;2024-03-22T12:51:48;22.70;44.90
31038;DHT22;17702;47.590;7.666;2024-03-22T12:54:13;22.70;44.50
31038;DHT22;17702;47.590;7.666;2024-03-22T12:56:40;22.60;47.30
31038;DHT22;17702;47.590;7.666;2024-03-22T12:59:06;22.70;49.00
31038;DHT22;17702;47.590;7.666;2024-03-22T13:01:33;22.80;45.50
31038;DHT22;17702;47.590;7.666;2024-03-22T13:03:58;22.90;45.90
31038;DHT22;17702;47.590;7.666;2024-03-22T13:06:24;23.00;46.70
31038;DHT22;17702;47.590;7.666;2024-03-22T13:08:50;23.00;46.60
31038;DHT22;17702;47.590;7.666;2024-03-22T13:11:16;23.10;47.30
31038;DHT22;17702;47.590;7.666;2024-03-22T13:13:42;23.10;44.80
31038;DHT22;17702;47.590;7.666;2024-03-22T13:16:09;23.20;44.60
31038;DHT22;17702;47.590;7.666;2024-03-22T13:18:37;23.30;45.40
31038;DHT22;17702;47.590;7.666;2024-03-22T13:21:02;23.50;44.60
31038;DHT22;17702;47.590;7.666;2024-03-22T13:23:30;23.50;46.40
31038;DHT22;17702;47.590;7.666;2024-03-22T13:25:56;23.50;44.60
31038;DHT22;17702;47.590;7.666;2024-03-22T13:28:24;23.60;44.10
31038;DHT22;17702;47.590;7.666;2024-03-22T13:31:07;23.70;42.40
31038;DHT22;17702;47.590;7.666;2024-03-22T13:33:34;23.70;43.30
31038;DHT22;17702;47.590;7.666;2024-03-22T13:36:00;23.70;42.00
31038;DHT22;17702;47.590;7.666;2024-03-22T13:38:26;23.70;42.70
31038;DHT22;17702;47.590;7.666;2024-03-22T13:40:58;23.70;43.90
31038;DHT22;17702;47.590;7.666;2024-03-22T13:43:26;23.70;44.80
31038;DHT22;17702;47.590;7.666;2024-03-22T13:45:53;23.70;42.00
31038;DHT22;17702;47.590;7.666;2024-03-22T13:48:23;23.80;43.90
31038;DHT22;17702;47.590;7.666;2024-03-22T13:50:56;23.80;42.70
31038;DHT22;17702;47.590;7.666;2024-03-22T13:53:22;23.80;44.60
31038;DHT22;17702;47.590;7.666;2024-03-22T13:55:48;24.00;44.70
31038;DHT22;17702;47.590;7.666;2024-03-22T13:58:14;24.00;43.20
31038;DHT22;17702;47.590;7.666;2024-03-22T14:00:40;24.00;44.10
31038;DHT22;17702;47.590;7.666;2024-03-22T14:03:06;24.00;45.10
31038;DHT22;17702;47.590;7.666;2024-03-22T14:05:31;23.90;42.70
31038;DHT22;17702;47.590;7.666;2024-03-22T14:07:58;23.80;44.80
31038;DHT22;17702;47.590;7.666;2024-03-22T14:10:24;23.80;42.50
31038;DHT22;17702;47.590;7.666;2024-03-22T14:12:52;23.80;43.00
31038;DHT22;17702;47.590;7.666;2024-03-22T14:15:18;23.80;43.30
31038;DHT22;17702;47.590;7.666;2024-03-22T14:17:44;23.70;44.80
31038;DHT22;17702;47.590;7.666;2024-03-22T14:20:10;23.70;45.60
31038;DHT22;17702;47.590;7.666;2024-03-22T14:22:40;23.80;45.50
31038;DHT22;17702;47.590;7.666;2024-03-22T14:25:09;23.80;47.10
31038;DHT22;17702;47.590;7.666;2024-03-22T14:27:35;23.80;45.50
31038;DHT22;17702;47.590;7.666;2024-03-22T14:30:03;23.80;46.90
31038;DHT22;17702;47.590;7.666;2024-03-22T14:32:33;23.80;46.90
31038;DHT22;17702;47.590;7.666;2024-03-22T14:35:00;23.70;45.60
31038;DHT22;17702;47.590;7.666;2024-03-22T14:37:26;23.80;46.40
31038;DHT22;17702;47.590;7.666;2024-03-22T14:39:52;23.70;44.80
31038;DHT22;17702;47.590;7.666;2024-03-22T14:42:18;23.70;44.90
31038;DHT22;17702;47.590;7.666;2024-03-22T14:44:43;23.60;43.90
31038;DHT22;17702;47.590;7.666;2024-03-22T14:47:10;23.50;46.20
31038;DHT22;17702;47.590;7.666;2024-03-22T14:49:35;23.60;46.40
31038;DHT22;17702;47.590;7.666;2024-03-22T14:52:01;23.60;47.30
31038;DHT22;17702;47.590;7.666;2024-03-22T14:54:27;23.60;45.60
31038;DHT22;17702;47.590;7.666;2024-03-22T14:56:52;23.60;46.30
31038;DHT22;17702;47.590;7.666;2024-03-22T14:59:19;23.60;46.50
31038;DHT22;17702;47.590;7.666;2024-03-22T15:01:45;23.60;46.40
31038;DHT22;17702;47.590;7.666;2024-03-22T15:04:11;23.70;45.50
31038;DHT22;17702;47.590;7.666;2024-03-22T15:06:37;23.70;46.90
31038;DHT22;17702;47.590;7.666;2024-03-22T15:09:02;23.70;47.20
31038;DHT22;17702;47.590;7.666;2024-03-22T15:11:35;23.70;47.70
31038;DHT22;17702;47.590;7.666;2024-03-22T15:14:01;23.60;47.10
31038;DHT22;17702;47.590;7.666;2024-03-22T15:16:26;23.60;48.00
31038;DHT22;17702;47.590;7.666;2024-03-22T15:18:52;23.60;47.50
31038;DHT22;17702;47.590;7.666;2024-03-22T15:21:17;23.60;48.30
31038;DHT22;17702;47.590;7.666;2024-03-22T15:23:45;23.50;48.30